createdAt,value
2018-04-25T00:01:00.356Z,14.60
2018-04-25T00:03:28.399Z,14.60
2018-04-25T00:05:56.443Z,14.50
2018-04-25T00:08:24.499Z,14.40
2018-04-25T00:10:52.564Z,14.20
2018-04-25T00:13:21.395Z,13.90
2018-04-25T00:15:50.187Z,13.80
2018-04-25T00:18:18.234Z,13.70
2018-04-25T00:20:46.283Z,13.60
2018-04-25T00:23:14.335Z,13.40
2018-04-25T00:25:43.152Z,13.20
2018-04-25T00:28:11.200Z,13.10
2018-04-25T00:30:39.260Z,13.10
2018-04-25T00:33:07.307Z,13.10
2018-04-25T00:35:35.354Z,13.00
2018-04-25T00:38:03.403Z,12.90
2018-04-25T00:40:31.441Z,12.80
2018-04-25T00:43:03.722Z,12.90
2018-04-25T00:45:32.609Z,13.10
2018-04-25T00:48:00.588Z,13.00
2018-04-25T00:50:28.633Z,13.00
2018-04-25T00:52:56.685Z,13.10
2018-04-25T00:55:24.731Z,13.00
2018-04-25T00:57:52.778Z,13.00
2018-04-25T01:00:20.823Z,12.90
2018-04-25T01:02:49.632Z,12.80
2018-04-25T01:05:18.453Z,12.80
2018-04-25T01:07:46.490Z,12.80
2018-04-25T01:10:14.554Z,13.00
2018-04-25T01:12:42.605Z,13.20
2018-04-25T01:15:10.655Z,13.20
2018-04-25T01:17:38.707Z,13.20
2018-04-25T01:20:06.763Z,13.30
2018-04-25T01:22:35.591Z,13.20
2018-04-25T01:28:18.219Z,13.00
2018-04-25T01:31:10.506Z,13.00
2018-04-25T01:33:41.399Z,13.20
2018-04-25T01:36:14.587Z,13.10
2018-04-25T01:38:48.246Z,13.10
2018-04-25T01:41:17.045Z,13.30
2018-04-25T01:43:57.020Z,13.30
2018-04-25T01:46:25.927Z,13.30
2018-04-25T01:49:29.408Z,13.50
2018-04-25T01:52:16.175Z,13.80
2018-04-25T01:55:02.052Z,13.80
2018-04-25T01:57:48.776Z,13.80
2018-04-25T02:00:35.484Z,13.70
2018-04-25T02:03:03.543Z,13.70
2018-04-25T02:05:31.595Z,13.70
2018-04-25T02:07:59.647Z,13.70
2018-04-25T02:10:28.463Z,13.60
2018-04-25T02:12:56.507Z,13.60
2018-04-25T02:15:24.559Z,13.60
2018-04-25T02:17:52.599Z,13.60
2018-04-25T02:20:21.420Z,13.60
2018-04-25T02:22:49.463Z,13.60
2018-04-25T02:25:17.520Z,13.80
2018-04-25T02:27:45.571Z,13.80
2018-04-25T02:30:13.628Z,13.80
2018-04-25T02:32:42.443Z,13.90
2018-04-25T02:35:11.268Z,14.00
2018-04-25T02:37:39.312Z,14.00
2018-04-25T02:40:08.976Z,14.10
2018-04-25T02:42:37.011Z,14.10
2018-04-25T02:45:05.067Z,14.10
2018-04-25T02:47:33.171Z,14.10
2018-04-25T02:50:01.933Z,14.00
2018-04-25T02:52:29.974Z,14.00
2018-04-25T02:54:58.032Z,14.00
2018-04-25T02:57:26.074Z,13.90
2018-04-25T02:59:54.177Z,13.90
2018-04-25T03:02:22.219Z,13.90
2018-04-25T03:04:50.278Z,13.90
2018-04-25T03:07:18.329Z,14.00
2018-04-25T03:09:46.387Z,14.10
2018-04-25T03:12:15.202Z,13.80
2018-04-25T03:14:43.250Z,13.80
2018-04-25T03:17:12.807Z,13.90
2018-04-25T03:19:40.854Z,13.90
2018-04-25T03:22:08.912Z,14.10
2018-04-25T03:24:36.955Z,14.00
2018-04-25T03:27:05.016Z,14.10
2018-04-25T03:29:33.829Z,14.20
2018-04-25T03:32:02.652Z,14.20
2018-04-25T03:34:30.696Z,14.20
2018-04-25T03:36:58.743Z,14.10
2018-04-25T03:39:26.791Z,14.10
2018-04-25T03:41:55.636Z,14.10
2018-04-25T03:44:23.777Z,14.10
2018-04-25T03:46:52.600Z,14.10
2018-04-25T03:49:20.643Z,14.10
2018-04-25T03:51:48.699Z,14.10
2018-04-25T03:54:16.752Z,14.10
2018-04-25T03:56:44.807Z,14.00
2018-04-25T03:59:12.897Z,14.00
2018-04-25T04:01:40.899Z,14.00
2018-04-25T04:04:08.948Z,13.90
2018-04-25T04:06:36.998Z,14.00
2018-04-25T04:09:05.059Z,13.90
2018-04-25T04:11:33.119Z,13.90
2018-04-25T04:14:01.933Z,13.90
2018-04-25T04:16:30.751Z,14.00
2018-04-25T04:18:58.794Z,13.90
2018-04-25T04:21:26.843Z,14.00
2018-04-25T04:23:54.885Z,14.10
2018-04-25T04:26:23.700Z,14.10
2018-04-25T04:28:51.748Z,14.10
2018-04-25T04:31:19.798Z,14.20
2018-04-25T04:33:47.844Z,14.20
2018-04-25T04:36:15.899Z,14.20
2018-04-25T04:38:43.947Z,14.10
2018-04-25T04:41:12.003Z,14.20
2018-04-25T04:43:40.052Z,14.20
2018-04-25T04:46:08.103Z,14.20
2018-04-25T04:48:36.143Z,14.20
2018-04-25T04:51:04.955Z,14.20
2018-04-25T04:53:33.079Z,14.20
2018-04-25T04:56:01.152Z,14.20
2018-04-25T04:58:29.203Z,14.20
2018-04-25T05:00:58.015Z,14.10
2018-04-25T05:03:26.068Z,14.10
2018-04-25T05:05:54.888Z,14.10
2018-04-25T05:08:23.716Z,14.10
2018-04-25T05:10:51.750Z,14.10
2018-04-25T05:13:19.809Z,14.10
2018-04-25T05:15:47.851Z,14.10
2018-04-25T05:18:15.911Z,14.10
2018-04-25T05:20:43.959Z,14.00
2018-04-25T05:23:12.011Z,14.10
2018-04-25T05:25:40.051Z,14.00
2018-04-25T05:28:08.111Z,14.00
2018-04-25T05:30:36.154Z,14.00
2018-04-25T05:33:04.207Z,14.00
2018-04-25T05:35:32.255Z,14.00
2018-04-25T05:38:00.307Z,14.00
2018-04-25T05:40:28.353Z,14.00
2018-04-25T05:42:56.407Z,14.00
2018-04-25T05:45:24.450Z,14.00
2018-04-25T05:47:53.291Z,14.20
2018-04-25T05:50:21.327Z,14.10
2018-04-25T05:52:50.151Z,14.30
2018-04-25T05:55:18.191Z,14.30
2018-04-25T05:57:46.334Z,14.30
2018-04-25T06:00:14.291Z,14.40
2018-04-25T06:02:43.112Z,14.50
2018-04-25T06:05:11.159Z,14.40
2018-04-25T06:07:39.220Z,14.60
2018-04-25T06:10:07.269Z,14.60
2018-04-25T06:12:35.442Z,14.60
2018-04-25T06:15:03.411Z,14.70
2018-04-25T06:17:32.222Z,14.90
2018-04-25T06:20:01.033Z,15.00
2018-04-25T06:22:29.075Z,15.00
2018-04-25T06:24:57.211Z,15.10
2018-04-25T06:27:25.264Z,15.10
2018-04-25T06:29:54.076Z,15.20
2018-04-25T06:32:22.899Z,15.20
2018-04-25T06:34:50.951Z,15.30
2018-04-25T06:37:18.998Z,15.30
2018-04-25T06:39:47.052Z,15.40
2018-04-25T06:42:15.099Z,15.40
2018-04-25T06:44:43.198Z,15.60
2018-04-25T06:47:11.203Z,15.60
2018-04-25T06:49:39.260Z,15.70
2018-04-25T06:52:08.074Z,15.90
2018-04-25T06:54:36.892Z,16.00
2018-04-25T06:57:04.943Z,16.00
2018-04-25T06:59:33.000Z,16.10
2018-04-25T07:02:01.051Z,16.10
2018-04-25T07:04:29.116Z,16.10
2018-04-25T07:06:57.927Z,16.30
2018-04-25T07:09:25.994Z,16.30
2018-04-25T07:11:55.028Z,16.50
2018-04-25T07:14:23.086Z,16.40
2018-04-25T07:16:51.891Z,16.60
2018-04-25T07:19:20.703Z,16.80
2018-04-25T07:21:48.750Z,16.80
2018-04-25T07:24:16.812Z,16.80
2018-04-25T07:26:44.870Z,17.00
2018-04-25T07:29:12.915Z,17.20
2018-04-25T07:31:41.779Z,17.40
2018-04-25T07:34:09.830Z,17.80
2018-04-25T07:36:37.875Z,18.20
2018-04-25T07:39:05.923Z,18.30
2018-04-25T07:41:34.035Z,18.20
2018-04-25T07:44:02.028Z,18.20
2018-04-25T07:46:30.067Z,18.20
2018-04-25T07:48:58.124Z,18.00
2018-04-25T07:51:26.931Z,18.10
2018-04-25T07:53:55.758Z,18.00
2018-04-25T07:56:23.796Z,18.00
2018-04-25T07:58:51.847Z,18.20
2018-04-25T08:01:19.887Z,18.30
2018-04-25T08:03:48.698Z,18.20
2018-04-25T08:06:16.740Z,18.10
2018-04-25T08:08:44.841Z,18.00
2018-04-25T08:11:12.879Z,18.00
2018-04-25T08:13:58.415Z,18.00
2018-04-25T08:19:55.123Z,18.20
2018-04-25T08:22:23.963Z,18.30
2018-04-25T08:24:52.024Z,18.30
2018-04-25T08:27:20.077Z,18.20
2018-04-25T08:29:48.132Z,18.10
2018-04-25T08:32:16.173Z,18.10
2018-04-25T08:34:44.227Z,18.10
2018-04-25T08:37:12.280Z,18.00
2018-04-25T08:39:40.332Z,18.10
2018-04-25T08:42:08.379Z,18.00
2018-04-25T08:44:37.261Z,17.90
2018-04-25T08:47:06.019Z,17.90
2018-04-25T08:49:34.080Z,17.80
2018-04-25T08:52:02.127Z,17.80
2018-04-25T08:54:30.172Z,17.80
2018-04-25T08:56:58.227Z,17.80
2018-04-25T08:59:26.271Z,17.80
2018-04-25T09:01:55.097Z,17.80
2018-04-25T09:04:23.145Z,17.80
2018-04-25T09:06:51.200Z,17.80
2018-04-25T09:09:20.012Z,17.80
2018-04-25T09:11:48.100Z,17.70
2018-04-25T09:14:16.147Z,17.80
2018-04-25T09:16:44.207Z,17.70
2018-04-25T09:19:12.255Z,17.60
2018-04-25T09:21:40.743Z,17.60
2018-04-25T09:24:08.794Z,17.50
2018-04-25T09:26:36.840Z,17.60
2018-04-25T09:29:04.888Z,17.60
2018-04-25T09:31:33.712Z,17.50
2018-04-25T09:34:01.799Z,17.50
2018-04-25T09:36:29.851Z,17.40
2018-04-25T09:38:58.667Z,17.50
2018-04-25T09:41:26.737Z,17.50
2018-04-25T09:43:54.767Z,17.50
2018-04-25T09:46:22.859Z,17.60
2018-04-25T09:48:50.900Z,17.60
2018-04-25T09:51:19.723Z,17.60
2018-04-25T09:53:47.779Z,17.60
2018-04-25T09:56:16.600Z,17.60
2018-04-25T09:58:45.411Z,17.60
2018-04-25T10:04:16.729Z,17.70
2018-04-25T10:06:44.788Z,17.70
2018-04-25T10:09:12.831Z,17.90
2018-04-25T10:11:41.516Z,18.00
2018-04-25T10:14:09.558Z,18.20
2018-04-25T10:16:37.608Z,18.20
2018-04-25T10:19:05.652Z,18.30
2018-04-25T10:21:33.699Z,18.40
2018-04-25T10:24:01.750Z,18.40
2018-04-25T10:26:29.800Z,18.50
2018-04-25T10:28:57.846Z,18.50
2018-04-25T10:31:26.671Z,18.60
2018-04-25T10:33:54.710Z,18.60
2018-04-25T10:36:22.768Z,18.70
2018-04-25T10:38:50.814Z,19.00
2018-04-25T10:41:18.863Z,19.60
2018-04-25T10:43:46.904Z,19.70
2018-04-25T10:46:14.973Z,19.90
2018-04-25T10:48:43.013Z,19.90
2018-04-25T10:51:11.063Z,20.30
2018-04-25T10:53:39.165Z,20.70
2018-04-25T10:56:07.191Z,21.10
2018-04-25T10:58:36.003Z,21.50
2018-04-25T11:01:04.052Z,21.50
2018-04-25T11:03:32.104Z,21.30
2018-04-25T11:06:00.155Z,21.30
2018-04-25T11:08:28.974Z,21.30
2018-04-25T11:10:57.015Z,21.40
2018-04-25T11:13:25.070Z,21.40
2018-04-25T11:15:53.111Z,21.20
2018-04-25T11:18:21.203Z,20.90
2018-04-25T11:20:49.243Z,20.70
2018-04-25T11:23:17.301Z,20.40
2018-04-25T11:25:45.343Z,20.00
2018-04-25T11:28:13.391Z,19.60
2018-04-25T11:30:42.948Z,19.00
2018-04-25T11:33:10.998Z,19.00
2018-04-25T11:35:39.043Z,18.90
2018-04-25T11:38:07.091Z,18.80
2018-04-25T11:40:35.901Z,18.80
2018-04-25T11:43:03.955Z,18.80
2018-04-25T11:45:31.999Z,18.80
2018-04-25T11:48:00.062Z,18.90
2018-04-25T11:50:28.111Z,19.00
2018-04-25T11:52:56.163Z,19.20
2018-04-25T11:55:24.207Z,19.70
2018-04-25T11:57:52.264Z,20.20
2018-04-25T12:00:20.316Z,20.30
2018-04-25T12:02:48.448Z,20.30
2018-04-25T12:05:16.412Z,20.00
2018-04-25T12:07:44.461Z,20.20
2018-04-25T12:10:12.519Z,20.20
2018-04-25T12:12:40.571Z,20.10
2018-04-25T12:15:08.635Z,19.80
2018-04-25T12:17:36.683Z,19.70
2018-04-25T12:20:04.723Z,19.60
2018-04-25T12:22:32.775Z,19.60
2018-04-25T12:25:00.838Z,19.40
2018-04-25T12:27:28.894Z,19.70
2018-04-25T12:29:57.704Z,20.40
2018-04-25T12:32:26.527Z,20.60
2018-04-25T12:34:54.570Z,20.60
2018-04-25T12:37:22.624Z,20.90
2018-04-25T12:39:50.667Z,21.00
2018-04-25T12:42:18.748Z,21.00
2018-04-25T12:44:47.586Z,21.20
2018-04-25T12:47:15.650Z,21.20
2018-04-25T12:49:43.735Z,21.20
2018-04-25T12:52:11.776Z,21.30
2018-04-25T12:54:39.827Z,21.30
2018-04-25T12:57:07.878Z,21.30
2018-04-25T12:59:35.928Z,21.30
2018-04-25T13:02:03.971Z,21.40
2018-04-25T13:04:32.026Z,21.20
2018-04-25T13:07:00.839Z,21.20
2018-04-25T13:09:28.891Z,21.10
2018-04-25T13:11:57.700Z,21.30
2018-04-25T13:14:26.519Z,21.20
2018-04-25T13:16:54.560Z,21.10
2018-04-25T13:19:22.614Z,20.80
2018-04-25T13:21:50.663Z,20.70
2018-04-25T13:24:19.480Z,20.10
2018-04-25T13:26:47.522Z,20.10
2018-04-25T13:29:15.583Z,19.70
2018-04-25T13:31:44.443Z,19.40
2018-04-25T13:34:12.492Z,19.30
2018-04-25T13:36:40.530Z,19.20
2018-04-25T13:39:08.611Z,19.30
2018-04-25T13:41:36.659Z,19.30
2018-04-25T13:44:04.715Z,19.70
2018-04-25T13:46:32.756Z,19.90
2018-04-25T13:49:00.847Z,19.70
2018-04-25T13:51:29.643Z,19.60
2018-04-25T13:53:57.691Z,19.60
2018-04-25T13:56:25.735Z,19.80
2018-04-25T13:58:53.785Z,19.80
2018-04-25T14:01:22.590Z,19.70
2018-04-25T14:03:51.406Z,19.70
2018-04-25T14:06:19.439Z,19.70
2018-04-25T14:08:47.487Z,20.00
2018-04-25T14:11:15.531Z,19.90
2018-04-25T14:13:44.343Z,20.20
2018-04-25T14:16:13.151Z,20.20
2018-04-25T14:18:41.203Z,20.20
2018-04-25T14:21:09.248Z,20.30
2018-04-25T14:23:37.322Z,20.30
2018-04-25T14:26:05.367Z,20.30
2018-04-25T14:28:34.183Z,20.60
2018-04-25T14:31:02.992Z,20.60
2018-04-25T14:33:31.054Z,20.60
2018-04-25T14:35:59.095Z,20.70
2018-04-25T14:38:27.162Z,20.50
2018-04-25T14:40:55.212Z,20.50
2018-04-25T14:43:24.022Z,20.60
2018-04-25T14:45:52.843Z,20.50
2018-04-25T14:48:20.959Z,20.50
2018-04-25T14:50:49.708Z,20.10
2018-04-25T14:53:18.562Z,20.20
2018-04-25T14:55:46.615Z,20.20
2018-04-25T14:58:14.664Z,20.40
2018-04-25T15:00:42.707Z,20.70
2018-04-25T15:03:10.777Z,20.90
2018-04-25T15:05:38.825Z,21.00
2018-04-25T15:08:06.868Z,20.90
2018-04-25T15:10:34.915Z,20.80
2018-04-25T15:13:02.963Z,20.70
2018-04-25T15:15:31.016Z,20.30
2018-04-25T15:17:59.059Z,20.00
2018-04-25T15:20:27.870Z,20.10
2018-04-25T15:22:55.914Z,20.10
2018-04-25T15:25:23.979Z,20.30
2018-04-25T15:27:52.017Z,20.40
2018-04-25T15:30:20.826Z,20.60
2018-04-25T15:32:48.876Z,20.60
2018-04-25T15:35:16.918Z,20.60
2018-04-25T15:37:45.110Z,20.10
2018-04-25T15:40:13.172Z,20.10
2018-04-25T15:42:41.275Z,20.20
2018-04-25T15:45:09.322Z,20.20
2018-04-25T15:47:38.188Z,20.00
2018-04-25T15:50:06.237Z,20.00
2018-04-25T15:52:34.283Z,20.00
2018-04-25T15:55:02.336Z,19.80
2018-04-25T15:57:30.384Z,19.60
2018-04-25T15:59:58.434Z,19.30
2018-04-25T16:02:27.238Z,19.20
2018-04-25T16:04:55.359Z,19.20
2018-04-25T16:07:23.401Z,19.50
2018-04-25T16:09:52.956Z,19.40
2018-04-25T16:12:21.111Z,19.40
2018-04-25T16:14:49.067Z,19.20
2018-04-25T16:17:17.100Z,19.30
2018-04-25T16:19:45.939Z,18.90
2018-04-25T16:22:14.012Z,18.80
2018-04-25T16:24:42.047Z,18.60
2018-04-25T16:27:10.883Z,18.10
2018-04-25T16:29:38.930Z,18.10
2018-04-25T16:32:06.983Z,17.70
2018-04-25T16:34:35.025Z,17.60
2018-04-25T16:37:03.853Z,17.80
2018-04-25T16:39:31.879Z,17.80
2018-04-25T16:41:59.932Z,17.90
2018-04-25T16:44:27.989Z,18.00
2018-04-25T16:46:56.818Z,18.30
2018-04-25T16:49:24.859Z,18.30
2018-04-25T16:51:53.677Z,18.10
2018-04-25T16:54:21.723Z,18.00
2018-04-25T16:56:49.779Z,18.00
2018-04-25T16:59:17.827Z,18.00
2018-04-25T17:01:46.720Z,18.10
2018-04-25T17:04:15.548Z,17.90
2018-04-25T17:06:43.602Z,17.90
2018-04-25T17:09:11.643Z,17.60
2018-04-25T17:11:39.927Z,17.40
2018-04-25T17:14:07.948Z,17.20
2018-04-25T17:16:36.004Z,16.90
2018-04-25T17:19:04.056Z,16.70
2018-04-25T17:21:32.876Z,16.40
2018-04-25T17:24:00.919Z,16.40
2018-04-25T17:26:28.969Z,16.40
2018-04-25T17:28:57.008Z,16.30
2018-04-25T17:31:25.825Z,16.20
2018-04-25T17:33:53.870Z,16.20
2018-04-25T17:36:21.930Z,16.20
2018-04-25T17:38:49.979Z,16.10
2018-04-25T17:41:18.027Z,16.10
2018-04-25T17:43:46.973Z,15.90
2018-04-25T17:46:14.999Z,15.90
2018-04-25T17:48:43.041Z,15.80
2018-04-25T17:51:11.161Z,15.70
2018-04-25T17:53:39.198Z,15.60
2018-04-25T17:56:08.021Z,15.00
2018-04-25T17:58:36.060Z,15.00
2018-04-25T18:01:04.150Z,14.80
2018-04-25T18:03:32.278Z,14.70
2018-04-25T18:06:01.127Z,14.20
2018-04-25T18:08:29.175Z,14.20
2018-04-25T18:10:57.279Z,14.10
2018-04-25T18:13:25.335Z,14.00
2018-04-25T18:15:53.491Z,13.90
2018-04-25T18:18:22.322Z,13.80
2018-04-25T18:20:50.422Z,13.80
2018-04-25T18:23:18.562Z,13.80
2018-04-25T18:25:46.599Z,13.80
2018-04-25T18:28:14.663Z,13.80
2018-04-25T18:30:42.726Z,13.70
2018-04-25T18:33:11.583Z,13.70
2018-04-25T18:35:39.690Z,13.70
2018-04-25T18:38:07.736Z,13.60
2018-04-25T18:40:35.780Z,13.60
2018-04-25T18:43:04.591Z,13.50
2018-04-25T18:45:33.399Z,13.50
2018-04-25T18:48:01.463Z,13.50
2018-04-25T18:50:30.272Z,13.50
2018-04-25T18:52:59.086Z,13.50
2018-04-25T18:55:27.131Z,13.50
2018-04-25T18:57:55.188Z,13.50
2018-04-25T19:00:23.223Z,13.40
2018-04-25T19:02:52.041Z,13.40
2018-04-25T19:05:20.080Z,13.40
2018-04-25T19:07:48.149Z,13.50
2018-04-25T19:10:16.211Z,13.40
2018-04-25T19:12:44.268Z,13.50
2018-04-25T19:15:13.161Z,13.40
2018-04-25T19:17:41.151Z,13.40
2018-04-25T19:20:09.175Z,13.40
2018-04-25T19:22:37.226Z,13.40
2018-04-25T19:25:06.047Z,13.40
2018-04-25T19:27:34.103Z,13.30
2018-04-25T19:30:02.910Z,13.40
2018-04-25T19:32:31.727Z,13.40
2018-04-25T19:34:59.771Z,13.40
2018-04-25T19:37:27.825Z,13.40
2018-04-25T19:39:55.862Z,13.30
2018-04-25T19:42:24.680Z,13.30
2018-04-25T19:44:52.763Z,13.30
2018-04-25T19:47:20.779Z,13.30
2018-04-25T19:49:48.845Z,13.20
2018-04-25T19:52:16.892Z,13.20
2018-04-25T19:54:44.943Z,13.20
2018-04-25T19:57:12.988Z,13.20
2018-04-25T19:59:41.028Z,13.10
2018-04-25T20:02:09.076Z,13.10
2018-04-25T20:04:37.148Z,13.20
2018-04-25T20:07:05.207Z,13.20
2018-04-25T20:09:34.024Z,13.20
2018-04-25T20:12:02.068Z,13.20
2018-04-25T20:14:30.125Z,13.20
2018-04-25T20:16:58.163Z,13.20
2018-04-25T20:19:26.985Z,13.20
2018-04-25T20:21:55.031Z,13.20
2018-04-25T20:24:23.075Z,13.20
2018-04-25T20:26:51.119Z,13.20
2018-04-25T20:29:19.934Z,13.10
2018-04-25T20:31:47.978Z,13.10
2018-04-25T20:34:16.034Z,13.10
2018-04-25T20:36:44.075Z,13.10
2018-04-25T20:39:12.888Z,13.20
2018-04-25T20:41:41.843Z,13.20
2018-04-25T20:44:09.984Z,13.20
2018-04-25T20:46:38.031Z,13.10
2018-04-25T20:49:06.079Z,13.00
2018-04-25T20:51:34.129Z,13.10
2018-04-25T20:54:03.048Z,13.00
2018-04-25T20:56:31.091Z,12.90
2018-04-25T20:58:59.219Z,12.90
2018-04-25T21:01:27.299Z,12.90
2018-04-25T21:03:55.353Z,13.00
2018-04-25T21:06:23.397Z,12.90
2018-04-25T21:08:51.443Z,13.00
2018-04-25T21:11:19.488Z,12.90
2018-04-25T21:13:48.299Z,12.90
2018-04-25T21:16:16.344Z,12.90
2018-04-25T21:18:44.419Z,12.90
2018-04-25T21:21:12.444Z,12.80
2018-04-25T21:23:41.292Z,12.90
2018-04-25T21:26:09.339Z,12.90
2018-04-25T21:28:37.388Z,12.90
2018-04-25T21:31:05.432Z,12.90
2018-04-25T21:33:34.252Z,12.90
2018-04-25T21:36:02.296Z,12.80
2018-04-25T21:38:30.421Z,12.80
2018-04-25T21:40:58.461Z,12.80
2018-04-25T21:43:26.515Z,12.80
2018-04-25T21:45:54.554Z,12.80
2018-04-25T21:48:23.370Z,12.80
2018-04-25T21:50:51.412Z,12.80
2018-04-25T21:53:20.225Z,12.80
2018-04-25T21:55:49.038Z,12.90
2018-04-25T21:58:17.848Z,12.90
2018-04-25T22:00:46.674Z,12.90
2018-04-25T22:03:14.720Z,12.90
2018-04-25T22:05:42.754Z,12.90
2018-04-25T22:08:10.807Z,12.80
2018-04-25T22:10:38.848Z,12.80
2018-04-25T22:13:06.905Z,12.90
2018-04-25T22:15:34.943Z,12.90
2018-04-25T22:18:03.793Z,12.80
2018-04-25T22:20:31.860Z,12.80
2018-04-25T22:22:59.898Z,12.80
2018-04-25T22:25:27.955Z,12.70
2018-04-25T22:27:56.000Z,12.70
2018-04-25T22:30:24.812Z,12.70
2018-04-25T22:32:52.858Z,12.60
2018-04-25T22:35:20.908Z,12.60
2018-04-25T22:37:48.956Z,12.60
2018-04-25T22:40:17.003Z,12.60
2018-04-25T22:42:45.055Z,12.50
2018-04-25T22:45:13.103Z,12.50
2018-04-25T22:47:42.105Z,12.50
2018-04-25T22:50:10.921Z,12.50
2018-04-25T22:52:39.029Z,12.50
2018-04-25T22:55:07.096Z,12.40
2018-04-25T22:57:35.183Z,12.40
2018-04-25T23:00:03.236Z,12.30
2018-04-25T23:02:31.279Z,12.20
2018-04-25T23:04:59.438Z,12.10
2018-04-25T23:07:27.480Z,12.10
2018-04-25T23:09:55.531Z,12.00
2018-04-25T23:12:23.596Z,11.90
2018-04-25T23:14:52.400Z,11.80
2018-04-25T23:17:20.443Z,11.80
2018-04-25T23:19:48.494Z,11.70
2018-04-25T23:22:16.535Z,11.70
2018-04-25T23:24:45.355Z,11.60
2018-04-25T23:27:13.395Z,11.50
2018-04-25T23:29:41.457Z,11.50
2018-04-25T23:32:09.491Z,11.30
2018-04-25T23:34:37.548Z,11.30
2018-04-25T23:37:05.603Z,11.30
2018-04-25T23:39:33.655Z,11.10
2018-04-25T23:42:01.702Z,11.00
2018-04-25T23:44:29.747Z,10.90
2018-04-25T23:46:57.787Z,10.70
2018-04-25T23:49:26.608Z,10.60
2018-04-25T23:51:54.646Z,10.60
2018-04-25T23:54:22.699Z,10.50
2018-04-25T23:56:50.745Z,10.60
2018-04-25T23:59:19.585Z,10.50
